createdAt,value
2019-05-18T00:01:32.228Z,6.10
2019-05-18T00:04:38.744Z,4.08
2019-05-18T00:07:47.248Z,5.20
2019-05-18T00:10:53.709Z,4.20
2019-05-18T00:14:00.365Z,4.00
2019-05-18T00:17:09.525Z,4.70
2019-05-18T00:20:16.509Z,4.60
2019-05-18T00:23:23.145Z,3.05
2019-05-18T00:26:29.608Z,4.37
2019-05-18T00:29:36.032Z,4.08
2019-05-18T00:32:45.386Z,4.10
2019-05-18T00:35:52.855Z,4.90
2019-05-18T00:39:00.389Z,5.22
2019-05-18T00:42:07.080Z,4.30
2019-05-18T00:45:14.231Z,4.30
2019-05-18T00:48:20.881Z,4.33
2019-05-18T00:51:27.430Z,3.62
2019-05-18T00:54:34.045Z,3.52
2019-05-18T00:57:40.568Z,6.37
2019-05-18T01:00:49.464Z,3.90
2019-05-18T01:03:55.959Z,5.92
2019-05-18T01:07:02.410Z,4.97
2019-05-18T01:10:09.646Z,4.78
2019-05-18T01:13:16.315Z,5.62
2019-05-18T01:16:22.798Z,5.10
2019-05-18T01:19:29.402Z,6.75
2019-05-18T01:22:35.879Z,4.72
2019-05-18T01:25:42.327Z,5.17
2019-05-18T01:28:49.244Z,4.85
2019-05-18T01:31:55.627Z,5.20
2019-05-18T01:35:02.139Z,4.78
2019-05-18T01:38:08.764Z,4.85
2019-05-18T01:41:15.511Z,5.37
2019-05-18T01:44:22.116Z,5.95
2019-05-18T01:47:30.112Z,6.05
2019-05-18T01:50:36.511Z,7.08
2019-05-18T01:53:45.754Z,4.83
2019-05-18T01:56:51.415Z,6.45
2019-05-18T01:59:57.897Z,3.98
2019-05-18T02:03:04.717Z,4.10
2019-05-18T02:06:11.177Z,5.35
2019-05-18T02:09:17.617Z,4.60
2019-05-18T02:12:24.287Z,3.87
2019-05-18T02:15:30.756Z,4.65
2019-05-18T02:18:37.334Z,4.05
2019-05-18T02:21:44.293Z,5.33
2019-05-18T02:24:50.783Z,4.58
2019-05-18T02:27:57.276Z,4.25
2019-05-18T02:31:03.754Z,5.00
2019-05-18T02:34:10.267Z,5.35
2019-05-18T02:37:16.690Z,6.12
2019-05-18T02:40:24.092Z,5.75
2019-05-18T02:43:31.666Z,4.25
2019-05-18T02:46:38.298Z,4.65
2019-05-18T02:49:45.174Z,4.10
2019-05-18T02:52:51.884Z,5.70
2019-05-18T02:55:58.357Z,4.80
2019-05-18T02:59:04.910Z,4.30
2019-05-18T03:02:11.455Z,4.78
2019-05-18T03:05:18.119Z,5.45
2019-05-18T03:08:24.725Z,9.23
2019-05-18T03:11:31.182Z,9.18
2019-05-18T03:14:37.708Z,14.47
2019-05-18T03:17:45.230Z,14.03
2019-05-18T03:20:51.843Z,10.23
2019-05-18T03:23:58.299Z,7.22
2019-05-18T03:27:04.873Z,9.70
2019-05-18T03:30:12.090Z,6.85
2019-05-18T03:33:18.678Z,6.70
2019-05-18T03:36:25.141Z,8.13
2019-05-18T03:39:32.712Z,7.00
2019-05-18T03:42:39.053Z,6.67
2019-05-18T03:45:47.368Z,5.92
2019-05-18T03:48:53.740Z,7.65
2019-05-18T03:52:00.301Z,9.95
2019-05-18T03:55:07.018Z,13.85
2019-05-18T03:58:13.572Z,14.80
2019-05-18T04:01:20.041Z,12.88
2019-05-18T04:04:26.701Z,10.35
2019-05-18T04:07:33.076Z,10.10
2019-05-18T04:10:39.488Z,9.28
2019-05-18T04:13:47.904Z,7.17
2019-05-18T04:16:57.899Z,7.78
2019-05-18T04:20:04.589Z,6.78
2019-05-18T04:23:11.008Z,7.28
2019-05-18T04:26:17.446Z,6.83
2019-05-18T04:29:23.872Z,7.62
2019-05-18T04:32:30.367Z,8.90
2019-05-18T04:35:38.923Z,9.18
2019-05-18T04:38:45.829Z,10.00
2019-05-18T04:41:52.291Z,12.18
2019-05-18T04:44:58.746Z,14.18
2019-05-18T04:48:05.385Z,10.15
2019-05-18T04:51:12.059Z,12.30
2019-05-18T04:54:18.574Z,10.32
2019-05-18T04:57:25.099Z,14.50
2019-05-18T05:00:31.573Z,14.80
2019-05-18T05:03:38.016Z,14.50
2019-05-18T05:06:44.908Z,12.60
2019-05-18T05:09:51.532Z,11.12
2019-05-18T05:12:57.962Z,11.48
2019-05-18T05:16:04.474Z,10.65
2019-05-18T05:19:11.121Z,11.93
2019-05-18T05:22:17.590Z,13.50
2019-05-18T05:25:24.143Z,11.48
2019-05-18T05:28:30.717Z,9.75
2019-05-18T05:31:37.385Z,10.63
2019-05-18T05:34:46.504Z,9.90
2019-05-18T05:37:53.017Z,10.70
2019-05-18T05:40:59.479Z,11.18
2019-05-18T05:44:06.026Z,12.23
2019-05-18T05:47:12.523Z,12.45
2019-05-18T05:50:34.803Z,10.68
2019-05-18T05:53:28.458Z,11.78
2019-05-18T05:56:34.899Z,10.40
2019-05-18T05:59:41.603Z,10.98
2019-05-18T06:02:48.069Z,9.10
2019-05-18T06:05:54.537Z,9.38
2019-05-18T06:09:02.212Z,7.17
2019-05-18T06:12:09.011Z,8.35
2019-05-18T06:15:15.989Z,5.42
2019-05-18T06:18:22.529Z,5.53
2019-05-18T06:21:29.026Z,6.00
2019-05-18T06:24:36.420Z,7.45
2019-05-18T06:27:44.371Z,6.20
2019-05-18T06:30:50.685Z,7.87
2019-05-18T06:33:57.373Z,5.50
2019-05-18T06:37:04.004Z,8.25
2019-05-18T06:40:11.037Z,5.40
2019-05-18T06:43:17.670Z,8.03
2019-05-18T06:46:24.340Z,6.17
2019-05-18T06:49:30.782Z,6.45
2019-05-18T06:52:38.027Z,4.30
2019-05-18T06:55:45.529Z,4.70
2019-05-18T06:58:53.591Z,6.20
2019-05-18T07:02:06.945Z,6.33
2019-05-18T07:05:13.582Z,5.12
2019-05-18T07:08:20.088Z,5.35
2019-05-18T07:11:30.259Z,5.95
2019-05-18T07:14:36.792Z,4.70
2019-05-18T07:17:45.197Z,4.67
2019-05-18T07:20:52.415Z,4.72
2019-05-18T07:23:58.924Z,5.60
2019-05-18T07:27:05.456Z,6.45
2019-05-18T07:30:12.697Z,4.58
2019-05-18T07:33:19.391Z,4.25
2019-05-18T07:36:25.917Z,5.25
2019-05-18T07:39:35.504Z,5.15
2019-05-18T07:42:40.658Z,4.85
2019-05-18T07:45:49.866Z,4.53
2019-05-18T07:48:59.625Z,4.45
2019-05-18T07:52:06.206Z,3.70
2019-05-18T07:55:14.212Z,4.17
2019-05-18T07:58:20.721Z,4.35
2019-05-18T08:01:27.260Z,5.37
2019-05-18T08:04:33.690Z,4.12
2019-05-18T08:07:40.234Z,3.87
2019-05-18T08:10:49.014Z,3.25
2019-05-18T08:13:55.967Z,3.25
2019-05-18T08:17:02.525Z,2.67
2019-05-18T08:20:12.696Z,5.60
2019-05-18T08:23:19.194Z,4.33
2019-05-18T08:26:25.789Z,4.30
2019-05-18T08:29:32.347Z,5.37
2019-05-18T08:32:38.927Z,5.45
2019-05-18T08:35:45.691Z,4.05
2019-05-18T08:38:52.079Z,4.75
2019-05-18T08:42:00.831Z,4.45
2019-05-18T08:45:08.422Z,6.00
2019-05-18T08:48:15.073Z,5.45
2019-05-18T08:51:21.618Z,4.28
2019-05-18T08:54:28.143Z,5.30
2019-05-18T08:57:34.879Z,4.37
2019-05-18T09:00:41.372Z,5.80
2019-05-18T09:03:47.853Z,4.35
2019-05-18T09:06:54.434Z,4.22
2019-05-18T09:10:02.042Z,4.10
2019-05-18T09:13:09.684Z,4.10
2019-05-18T09:16:17.128Z,4.92
2019-05-18T09:19:23.564Z,4.70
2019-05-18T09:22:30.162Z,5.30
2019-05-18T09:25:36.813Z,5.05
2019-05-18T09:28:45.443Z,6.25
2019-05-18T09:31:54.439Z,6.25
2019-05-18T09:35:01.116Z,7.70
2019-05-18T09:38:10.762Z,7.95
2019-05-18T09:41:17.204Z,6.47
2019-05-18T09:44:23.753Z,5.35
2019-05-18T09:47:30.137Z,6.10
2019-05-18T09:50:36.566Z,4.90
2019-05-18T09:53:51.299Z,6.10
2019-05-18T09:56:51.457Z,6.78
2019-05-18T09:59:58.384Z,5.00
2019-05-18T10:03:04.888Z,4.00
2019-05-18T10:06:11.355Z,5.95
2019-05-18T10:09:18.018Z,4.42
2019-05-18T10:12:25.778Z,3.62
2019-05-18T10:15:32.140Z,5.58
2019-05-18T10:18:38.883Z,5.70
2019-05-18T10:21:47.826Z,5.78
2019-05-18T10:24:54.288Z,5.62
2019-05-18T10:28:00.744Z,6.20
2019-05-18T10:31:07.537Z,5.42
2019-05-18T10:34:13.992Z,5.35
2019-05-18T10:37:20.472Z,3.80
2019-05-18T10:40:26.980Z,4.42
2019-05-18T10:43:35.367Z,4.80
2019-05-18T10:46:41.924Z,4.15
2019-05-18T10:49:50.096Z,6.12
2019-05-18T10:52:56.772Z,3.40
2019-05-18T10:56:03.377Z,5.15
2019-05-18T10:59:09.842Z,6.50
2019-05-18T11:02:16.541Z,5.67
2019-05-18T11:05:23.669Z,7.25
2019-05-18T11:08:32.473Z,3.60
2019-05-18T11:11:47.494Z,5.37
2019-05-18T11:14:49.314Z,5.50
2019-05-18T11:17:55.835Z,5.65
2019-05-18T11:21:03.673Z,4.72
2019-05-18T11:24:10.273Z,5.00
2019-05-18T11:27:16.791Z,3.83
2019-05-18T11:30:23.627Z,7.42
2019-05-18T11:33:30.194Z,5.53
2019-05-18T11:36:36.815Z,6.40
2019-05-18T11:39:49.404Z,5.42
2019-05-18T11:42:57.540Z,6.22
2019-05-18T11:46:04.096Z,5.12
2019-05-18T11:49:10.626Z,4.85
2019-05-18T11:52:19.541Z,5.65
2019-05-18T11:55:26.668Z,5.90
2019-05-18T11:58:33.226Z,4.70
2019-05-18T12:01:39.675Z,7.35
2019-05-18T12:04:48.837Z,5.20
2019-05-18T12:07:55.398Z,5.30
2019-05-18T12:11:01.914Z,6.45
2019-05-18T12:14:08.454Z,4.33
2019-05-18T12:17:15.082Z,5.10
2019-05-18T12:20:22.961Z,4.58
2019-05-18T12:23:29.496Z,7.55
2019-05-18T12:26:35.982Z,7.08
2019-05-18T12:29:42.487Z,6.05
2019-05-18T12:32:49.200Z,7.10
2019-05-18T12:35:55.646Z,8.98
2019-05-18T12:39:02.107Z,5.35
2019-05-18T12:42:09.903Z,5.08
2019-05-18T12:45:18.097Z,7.08
2019-05-18T12:48:24.655Z,5.45
2019-05-18T12:51:31.283Z,5.87
2019-05-18T12:54:46.041Z,5.80
2019-05-18T12:57:49.382Z,5.60
2019-05-18T13:00:55.830Z,5.53
2019-05-18T13:04:02.269Z,8.15
2019-05-18T13:07:09.752Z,6.47
2019-05-18T13:10:18.254Z,6.35
2019-05-18T13:13:24.881Z,5.95
2019-05-18T13:16:31.381Z,4.42
2019-05-18T13:19:39.698Z,7.25
2019-05-18T13:22:46.568Z,4.62
2019-05-18T13:25:53.147Z,4.37
2019-05-18T13:29:02.600Z,5.15
2019-05-18T13:32:09.059Z,5.70
2019-05-18T13:35:16.466Z,6.33
2019-05-18T13:38:22.918Z,4.65
2019-05-18T13:41:29.410Z,4.33
2019-05-18T13:44:38.193Z,4.58
2019-05-18T13:47:46.535Z,5.20
2019-05-18T13:50:54.170Z,4.28
2019-05-18T13:54:00.649Z,4.87
2019-05-18T13:57:07.268Z,5.90
2019-05-18T14:00:14.606Z,6.55
2019-05-18T14:03:21.188Z,5.15
2019-05-18T14:06:27.618Z,3.40
2019-05-18T14:09:39.332Z,4.30
2019-05-18T14:12:50.050Z,4.53
2019-05-18T14:15:56.565Z,3.85
2019-05-18T14:19:03.127Z,4.67
2019-05-18T14:22:09.606Z,3.67
2019-05-18T14:25:19.801Z,4.03
2019-05-18T14:28:24.978Z,3.42
2019-05-18T14:31:31.518Z,3.15
2019-05-18T14:34:38.035Z,4.20
2019-05-18T14:37:45.852Z,3.58
2019-05-18T14:40:52.323Z,4.65
2019-05-18T14:43:58.779Z,4.05
2019-05-18T14:47:05.711Z,4.17
2019-05-18T14:50:12.627Z,3.30
2019-05-18T14:53:19.059Z,3.87
2019-05-18T14:56:25.508Z,5.20
2019-05-18T14:59:32.135Z,4.78
2019-05-18T15:02:40.220Z,4.58
2019-05-18T15:05:49.031Z,5.53
2019-05-18T15:08:55.645Z,5.42
2019-05-18T15:12:02.497Z,4.62
2019-05-18T15:15:10.692Z,4.45
2019-05-18T15:18:17.313Z,4.78
2019-05-18T15:21:25.173Z,4.30
2019-05-18T15:24:32.781Z,5.40
2019-05-18T15:27:39.312Z,3.20
2019-05-18T15:30:47.985Z,5.60
2019-05-18T15:33:54.579Z,4.83
2019-05-18T15:37:01.403Z,4.90
2019-05-18T15:40:09.103Z,5.25
2019-05-18T15:43:15.937Z,4.25
2019-05-18T15:46:22.424Z,6.53
2019-05-18T15:49:28.966Z,6.83
2019-05-18T15:52:38.836Z,4.30
2019-05-18T15:55:45.550Z,4.03
2019-05-18T15:58:52.261Z,4.47
2019-05-18T16:01:58.883Z,4.50
2019-05-18T16:05:06.174Z,4.75
2019-05-18T16:08:12.741Z,3.98
2019-05-18T16:11:19.158Z,5.12
2019-05-18T16:14:26.004Z,4.03
2019-05-18T16:17:39.430Z,3.42
2019-05-18T16:20:41.122Z,3.20
2019-05-18T16:23:47.745Z,4.35
2019-05-18T16:26:54.288Z,3.08
2019-05-18T16:30:00.842Z,3.60
2019-05-18T16:33:07.502Z,4.03
2019-05-18T16:36:14.470Z,4.65
2019-05-18T16:39:21.064Z,4.20
2019-05-18T16:42:27.823Z,4.25
2019-05-18T16:45:34.363Z,3.67
2019-05-18T16:48:45.084Z,3.87
2019-05-18T16:51:54.279Z,3.60
2019-05-18T16:55:00.971Z,4.37
2019-05-18T16:58:07.646Z,3.62
2019-05-18T17:01:14.196Z,4.25
2019-05-18T17:04:20.806Z,4.87
2019-05-18T17:07:27.612Z,3.62
2019-05-18T17:10:34.227Z,3.17
2019-05-18T17:13:40.702Z,3.83
2019-05-18T17:16:48.013Z,3.42
2019-05-18T17:19:57.252Z,4.78
2019-05-18T17:23:03.768Z,3.52
2019-05-18T17:26:10.457Z,3.58
2019-05-18T17:29:17.485Z,4.42
2019-05-18T17:32:24.039Z,4.60
2019-05-18T17:35:31.826Z,4.20
2019-05-18T17:38:38.312Z,5.15
2019-05-18T17:41:52.498Z,4.05
2019-05-18T17:44:59.915Z,5.53
2019-05-18T17:48:06.693Z,5.25
2019-05-18T17:51:13.539Z,5.20
2019-05-18T17:54:20.126Z,4.30
2019-05-18T17:57:26.682Z,4.55
2019-05-18T18:00:33.414Z,4.50
2019-05-18T18:03:39.995Z,4.28
2019-05-18T18:06:48.542Z,5.42
2019-05-18T18:09:55.056Z,4.42
2019-05-18T18:13:01.732Z,4.80
2019-05-18T18:16:08.872Z,6.25
2019-05-18T18:19:15.521Z,6.20
2019-05-18T18:22:23.894Z,6.62
2019-05-18T18:25:30.668Z,6.08
2019-05-18T18:28:37.172Z,5.70
2019-05-18T18:31:44.923Z,7.42
2019-05-18T18:34:53.776Z,6.20
2019-05-18T18:38:00.619Z,6.15
2019-05-18T18:41:07.136Z,6.47
2019-05-18T18:44:13.783Z,6.78
2019-05-18T18:47:20.296Z,7.22
2019-05-18T18:50:26.874Z,7.25
2019-05-18T18:53:33.501Z,7.85
2019-05-18T18:56:40.096Z,5.45
2019-05-18T18:59:48.826Z,5.70
2019-05-18T19:02:56.491Z,6.78
2019-05-18T19:06:03.132Z,7.78
2019-05-18T19:09:09.794Z,8.90
2019-05-18T19:12:16.204Z,5.35
2019-05-18T19:15:22.979Z,8.23
2019-05-18T19:18:29.460Z,5.80
2019-05-18T19:21:36.623Z,7.92
2019-05-18T19:24:45.497Z,9.80
2019-05-18T19:27:55.333Z,9.03
2019-05-18T19:31:00.353Z,8.45
2019-05-18T19:34:06.820Z,8.08
2019-05-18T19:37:13.293Z,8.20
2019-05-18T19:40:22.390Z,8.10
2019-05-18T19:43:28.833Z,7.40
2019-05-18T19:46:35.970Z,6.83
2019-05-18T19:49:43.724Z,8.58
2019-05-18T19:52:50.248Z,9.50
2019-05-18T19:55:56.747Z,8.25
2019-05-18T19:59:03.173Z,9.73
2019-05-18T20:02:10.144Z,7.17
2019-05-18T20:05:16.786Z,9.30
2019-05-18T20:08:23.235Z,10.93
2019-05-18T20:11:29.730Z,8.83
2019-05-18T20:14:36.239Z,9.20
2019-05-18T20:17:44.877Z,8.58
2019-05-18T20:20:51.467Z,11.30
2019-05-18T20:24:00.450Z,7.80
2019-05-18T20:27:06.955Z,10.68
2019-05-18T20:30:13.634Z,14.10
2019-05-18T20:33:20.034Z,11.95
2019-05-18T20:36:26.437Z,10.88
2019-05-18T20:39:32.899Z,10.15
2019-05-18T20:42:39.629Z,9.20
2019-05-18T20:45:48.557Z,8.80
2019-05-18T20:48:55.312Z,9.00
2019-05-18T20:52:01.762Z,9.68
2019-05-18T20:55:08.395Z,8.60
2019-05-18T20:58:14.882Z,10.10
2019-05-18T21:01:21.518Z,11.10
2019-05-18T21:04:28.069Z,11.78
2019-05-18T21:07:34.764Z,10.73
2019-05-18T21:10:41.220Z,12.28
2019-05-18T21:13:47.658Z,12.33
2019-05-18T21:16:55.326Z,13.08
2019-05-18T21:20:01.951Z,14.38
2019-05-18T21:23:11.753Z,27.05
2019-05-18T21:26:17.888Z,15.43
2019-05-18T21:29:24.353Z,10.82
2019-05-18T21:32:32.130Z,14.47
2019-05-18T21:35:38.533Z,12.13
2019-05-18T21:38:46.033Z,13.60
2019-05-18T21:41:52.574Z,14.18
2019-05-18T21:44:59.212Z,13.22
2019-05-18T21:48:05.833Z,13.70
2019-05-18T21:51:12.337Z,12.28
2019-05-18T21:54:18.823Z,15.60
2019-05-18T21:57:28.046Z,13.22
2019-05-18T22:00:34.668Z,13.28
2019-05-18T22:03:47.877Z,15.13
2019-05-18T22:06:52.172Z,16.25
2019-05-18T22:09:58.789Z,16.55
2019-05-18T22:13:05.170Z,18.80
2019-05-18T22:16:11.649Z,15.55
2019-05-18T22:19:20.276Z,12.75
2019-05-18T22:22:29.067Z,16.95
2019-05-18T22:25:36.005Z,14.93
2019-05-18T22:28:42.962Z,13.03
2019-05-18T22:31:49.476Z,16.73
2019-05-18T22:34:55.967Z,11.95
2019-05-18T22:38:02.564Z,13.85
2019-05-18T22:41:09.124Z,15.23
2019-05-18T22:44:15.820Z,15.83
2019-05-18T22:47:22.402Z,15.68
2019-05-18T22:50:28.954Z,16.15
2019-05-18T22:53:35.618Z,13.50
2019-05-18T22:56:42.080Z,15.68
2019-05-18T22:59:50.782Z,14.38
2019-05-18T23:02:57.274Z,13.50
2019-05-18T23:06:03.940Z,15.28
2019-05-18T23:09:10.602Z,16.07
2019-05-18T23:12:17.187Z,13.45
2019-05-18T23:15:23.680Z,16.75
2019-05-18T23:18:30.175Z,15.15
2019-05-18T23:21:38.309Z,16.35
2019-05-18T23:24:48.112Z,15.95
2019-05-18T23:27:54.603Z,16.60
2019-05-18T23:31:02.415Z,13.53
2019-05-18T23:34:11.016Z,14.53
2019-05-18T23:37:17.565Z,16.52
2019-05-18T23:40:24.144Z,15.78
2019-05-18T23:43:30.661Z,12.78
2019-05-18T23:46:37.699Z,17.48
2019-05-18T23:49:44.683Z,15.20
2019-05-18T23:52:51.215Z,17.20
2019-05-18T23:55:57.674Z,17.00
2019-05-18T23:59:04.390Z,14.25
